| time (UTC) | temp F | wind direction | speed MPH | gust MPH | rain 1hr in | rain 24hr in | rain mn in | humidity % | barometer mb |
| 20260506233031 | 46 | 203 | 0.0 | 2.0 | 0.00 | 0.13 | 0.00 | 94 | 1010.4 |
| 20260506232028 | 47 | 182 | 1.0 | 4.0 | 0.00 | 0.13 | 0.00 | 93 | 1010.2 |
| 20260506231026 | 47 | 218 | 1.0 | 2.0 | 0.00 | 0.13 | 0.00 | 93 | 1010.2 |
| 20260506230023 | 47 | 171 | 1.0 | 4.0 | 0.00 | 0.13 | 0.00 | 93 | 1010.2 |
| 20260506225020 | 47 | 126 | 1.0 | 4.0 | 0.00 | 0.13 | 0.00 | 93 | 1010.2 |
| 20260506224113 | 47 | 174 | 0.0 | 2.0 | 0.00 | 0.13 | 0.00 | 93 | 1010.2 |
| 20260506223110 | 47 | 180 | 0.0 | 2.0 | 0.00 | 0.13 | 0.00 | 93 | 1010.1 |
| 20260506222107 | 47 | 203 | 0.0 | 2.0 | 0.00 | 0.13 | 0.00 | 93 | 1010.0 |
| 20260506221103 | 47 | 140 | 1.0 | 4.0 | 0.00 | 0.13 | 0.00 | 93 | 1009.9 |
| 20260506220059 | 47 | 159 | 1.0 | 4.0 | 0.00 | 0.13 | 0.00 | 92 | 1010.0 |
| 20260506215056 | 48 | 181 | 1.0 | 4.0 | 0.00 | 0.13 | 0.13 | 92 | 1009.9 |
| 20260506214052 | 48 | 158 | 0.0 | 2.0 | 0.00 | 0.13 | 0.13 | 92 | 1009.8 |
| 20260506213049 | 48 | 174 | 1.0 | 2.0 | 0.00 | 0.13 | 0.13 | 91 | 1009.9 |
| 20260506212046 | 48 | 187 | 1.0 | 4.0 | 0.00 | 0.13 | 0.13 | 91 | 1009.9 |
| 20260506211042 | 48 | 164 | 1.0 | 4.0 | 0.00 | 0.13 | 0.13 | 91 | 1009.7 |
| 20260506210042 | 48 | 216 | 1.0 | 4.0 | 0.00 | 0.13 | 0.13 | 92 | 1009.8 |
| 20260506205036 | 48 | 249 | 1.0 | 7.0 | 0.00 | 0.13 | 0.13 | 92 | 1009.7 |
| 20260506204032 | 48 | 243 | 1.0 | 4.0 | 0.00 | 0.13 | 0.13 | 92 | 1009.7 |
| 20260506203029 | 48 | 217 | 1.0 | 2.0 | 0.00 | 0.13 | 0.13 | 92 | 1009.6 |
| 20260506202028 | 48 | 207 | 1.0 | 4.0 | 0.00 | 0.13 | 0.13 | 91 | 1009.6 |
| 20260506201021 | 48 | 196 | 1.0 | 4.0 | 0.00 | 0.13 | 0.13 | 91 | 1009.5 |
| 20260506200018 | 49 | 188 | 1.0 | 4.0 | 0.00 | 0.15 | 0.13 | 90 | 1009.3 |
| 20260506195115 | 48 | 175 | 1.0 | 4.0 | 0.00 | 0.17 | 0.13 | 91 | 1009.6 |
| 20260506194112 | 48 | 255 | 1.0 | 4.0 | 0.00 | 0.17 | 0.13 | 90 | 1009.4 |
| 20260506193108 | 49 | 187 | 1.0 | 6.0 | 0.00 | 0.18 | 0.13 | 90 | 1009.5 |
| 20260506192104 | 48 | 161 | 1.0 | 4.0 | 0.00 | 0.19 | 0.13 | 90 | 1009.2 |
| 20260506191104 | 48 | 161 | 1.0 | 4.0 | 0.00 | 0.19 | 0.13 | 90 | 1009.0 |
| 20260506190058 | 49 | 222 | 2.0 | 4.0 | 0.00 | 0.19 | 0.13 | 90 | 1009.0 |
| 20260506185057 | 49 | 211 | 2.0 | 7.0 | 0.00 | 0.19 | 0.13 | 89 | 1008.7 |
| 20260506184051 | 49 | 178 | 2.0 | 7.0 | 0.00 | 0.19 | 0.13 | 89 | 1008.7 |
| 20260506183047 | 49 | 159 | 2.0 | 8.0 | 0.00 | 0.19 | 0.13 | 89 | 1008.6 |
| 20260506182043 | 50 | 231 | 2.0 | 4.0 | 0.00 | 0.19 | 0.13 | 88 | 1008.4 |
| 20260506181040 | 50 | 259 | 1.0 | 4.0 | 0.00 | 0.19 | 0.13 | 88 | 1008.3 |
| 20260506180039 | 50 | 190 | 2.0 | 4.0 | 0.00 | 0.19 | 0.13 | 88 | 1008.3 |
| 20260506175034 | 50 | 161 | 2.0 | 11.0 | 0.00 | 0.19 | 0.13 | 87 | 1008.0 |
| 20260506174033 | 50 | 177 | 3.0 | 8.0 | 0.00 | 0.19 | 0.13 | 87 | 1008.1 |
| 20260506173026 | 50 | 161 | 2.0 | 7.0 | 0.00 | 0.19 | 0.13 | 87 | 1008.0 |
| 20260506172023 | 50 | 196 | 2.0 | 11.0 | 0.00 | 0.19 | 0.13 | 87 | 1007.8 |
| 20260506171022 | 50 | 171 | 2.0 | 11.0 | 0.00 | 0.19 | 0.13 | 88 | 1007.7 |
| 20260506170016 | 50 | 195 | 1.0 | 4.0 | 0.00 | 0.19 | 0.13 | 90 | 1007.6 |
| 20260506165116 | 50 | 176 | 1.0 | 4.0 | 0.00 | 0.19 | 0.13 | 89 | 1007.3 |
| 20260506164110 | 50 | 151 | 2.0 | 6.0 | 0.00 | 0.19 | 0.13 | 89 | 1007.3 |
| 20260506163109 | 50 | 235 | 3.0 | 9.0 | 0.00 | 0.19 | 0.13 | 89 | 1007.4 |
| 20260506162103 | 50 | 194 | 2.0 | 4.0 | 0.00 | 0.19 | 0.13 | 89 | 1007.6 |
| 20260506161103 | 50 | 226 | 2.0 | 4.0 | 0.00 | 0.20 | 0.13 | 90 | 1007.6 |
| 20260506160056 | 51 | 210 | 2.0 | 7.0 | 0.06 | 0.20 | 0.13 | 88 | 1007.4 |
| 20260506155052 | 51 | 196 | 3.0 | 8.0 | 0.06 | 0.20 | 0.13 | 90 | 1007.3 |
| 20260506154051 | 51 | 208 | 2.0 | 7.0 | 0.06 | 0.20 | 0.13 | 92 | 1007.2 |
| 20260506153045 | 51 | 184 | 2.0 | 8.0 | 0.06 | 0.20 | 0.13 | 93 | 1007.1 |
| 20260506152041 | 52 | 181 | 2.0 | 14.0 | 0.06 | 0.20 | 0.13 | 93 | 1006.9 |
| 20260506151038 | 51 | 153 | 3.0 | 14.0 | 0.06 | 0.20 | 0.13 | 93 | 1006.5 |
| 20260506150034 | 56 | 226 | 4.0 | 11.0 | 0.01 | 0.14 | 0.07 | 80 | 1006.2 |
| 20260506145034 | 61 | 163 | 0.0 | 2.0 | 0.01 | 0.14 | 0.07 | 73 | 1004.7 |
| 20260506144028 | 65 | 180 | 0.0 | 2.0 | 0.04 | 0.14 | 0.07 | 67 | 1004.7 |
| 20260506143024 | 64 | 203 | 1.0 | 2.0 | 0.06 | 0.14 | 0.07 | 67 | 1004.8 |
| 20260506142024 | 64 | 180 | 0.0 | 2.0 | 0.07 | 0.14 | 0.07 | 70 | 1004.9 |
| 20260506141017 | 61 | 158 | 1.0 | 4.0 | 0.07 | 0.14 | 0.07 | 78 | 1004.9 |
| 20260506140114 | 59 | 151 | 0.0 | 2.0 | 0.06 | 0.13 | 0.06 | 89 | 1004.9 |
| 20260506135114 | 56 | 68 | 1.0 | 2.0 | 0.06 | 0.13 | 0.06 | 89 | 1004.9 |
| 20260506134107 | 57 | 150 | 3.0 | 6.0 | 0.04 | 0.11 | 0.04 | 82 | 1005.5 |
| 20260506133104 | 59 | 190 | 1.0 | 2.0 | 0.01 | 0.08 | 0.01 | 79 | 1005.4 |
| 20260506132101 | 61 | 185 | 1.0 | 2.0 | 0.00 | 0.07 | 0.00 | 72 | 1005.4 |
| 20260506131105 | 61 | 180 | 1.0 | 2.0 | 0.00 | 0.07 | 0.00 | 65 | 1005.4 |
| 20260506130053 | 61 | 246 | 1.0 | 2.0 | 0.00 | 0.07 | 0.00 | 64 | 1005.2 |
| 20260506125050 | 62 | 255 | 1.0 | 2.0 | 0.00 | 0.07 | 0.00 | 62 | 1005.1 |
| 20260506124046 | 63 | 0 | 0.0 | 2.0 | 0.00 | 0.07 | 0.00 | 62 | 1004.8 |
| 20260506123043 | 64 | 310 | 0.0 | 2.0 | 0.00 | 0.07 | 0.00 | 61 | 1004.6 |
| 20260506122043 | 64 | 293 | 0.0 | 2.0 | 0.00 | 0.07 | 0.00 | 61 | 1004.8 |
| 20260506121036 | 62 | 358 | 1.0 | 7.0 | 0.00 | 0.07 | 0.00 | 64 | 1004.5 |
| 20260506120033 | 63 | 57 | 1.0 | 6.0 | 0.00 | 0.07 | 0.00 | 63 | 1004.5 |
| 20260506115032 | 63 | 343 | 0.0 | 2.0 | 0.00 | 0.08 | 0.00 | 61 | 1004.8 |
| 20260506114025 | 63 | 34 | 1.0 | 4.0 | 0.00 | 0.08 | 0.00 | 59 | 1004.9 |
| 20260506113023 | 63 | 81 | 1.0 | 2.0 | 0.00 | 0.08 | 0.00 | 59 | 1005.1 |
| 20260506112022 | 63 | 52 | 1.0 | 2.0 | 0.00 | 0.08 | 0.00 | 58 | 1005.2 |
| 20260506111015 | 63 | 77 | 1.0 | 4.0 | 0.00 | 0.08 | 0.00 | 60 | 1005.3 |
| 20260506110112 | 63 | 24 | 1.0 | 2.0 | 0.00 | 0.08 | 0.00 | 65 | 1005.2 |
| 20260506105111 | 63 | 352 | 1.0 | 4.0 | 0.00 | 0.08 | 0.00 | 66 | 1005.3 |
| 20260506104105 | 62 | 335 | 1.0 | 4.0 | 0.00 | 0.08 | 0.00 | 68 | 1005.4 |
| 20260506103102 | 62 | 60 | 1.0 | 4.0 | 0.00 | 0.08 | 0.00 | 68 | 1005.2 |
| 20260506102059 | 60 | 324 | 1.0 | 4.0 | 0.00 | 0.08 | 0.00 | 68 | 1005.4 |
| 20260506101058 | 60 | 321 | 0.0 | 2.0 | 0.00 | 0.08 | 0.00 | 70 | 1005.4 |
| 20260506100051 | 60 | 315 | 1.0 | 2.0 | 0.00 | 0.08 | 0.00 | 71 | 1005.7 |
| 20260506095048 | 60 | 271 | 1.0 | 2.0 | 0.00 | 0.08 | 0.00 | 70 | 1005.9 |
| 20260506094045 | 60 | 336 | 0.0 | 2.0 | 0.00 | 0.08 | 0.00 | 69 | 1005.9 |
| 20260506093044 | 61 | 210 | 0.0 | 2.0 | 0.00 | 0.08 | 0.00 | 68 | 1006.0 |
| 20260506092037 | 60 | 315 | 0.0 | 2.0 | 0.00 | 0.08 | 0.00 | 68 | 1005.8 |
| 20260506091034 | 60 | 338 | 0.0 | 2.0 | 0.00 | 0.08 | 0.00 | 71 | 1005.9 |
| 20260506090034 | 59 | 6 | 1.0 | 4.0 | 0.00 | 0.08 | 0.00 | 71 | 1006.0 |
| 20260506085027 | 59 | 338 | 0.0 | 2.0 | 0.00 | 0.08 | 0.00 | 74 | 1005.9 |
| 20260506084024 | 58 | 90 | 0.0 | 2.0 | 0.00 | 0.08 | 0.00 | 74 | 1005.7 |
| 20260506083021 | 57 | 248 | 0.0 | 2.0 | 0.00 | 0.08 | 0.00 | 78 | 1006.0 |
| 20260506082017 | 57 | 0.0 | 2.0 | 0.00 | 0.08 | 0.00 | 79 | 1006.0 | |
| 20260506081114 | 56 | 225 | 0.0 | 2.0 | 0.00 | 0.08 | 0.00 | 82 | 1006.1 |
| 20260506080110 | 56 | 225 | 0.0 | 2.0 | 0.00 | 0.08 | 0.00 | 81 | 1006.0 |
| 20260506073101 | 55 | 158 | 0.0 | 2.0 | 0.00 | 0.08 | 0.00 | 84 | 1005.9 |
| 20260506072057 | 55 | 0.0 | 0.0 | 0.00 | 0.08 | 0.00 | 86 | 1006.1 | |
| 20260506071054 | 54 | 158 | 0.0 | 2.0 | 0.00 | 0.08 | 0.00 | 87 | 1006.2 |
| 20260506062036 | 52 | 203 | 0.0 | 2.0 | 0.00 | 0.08 | 0.00 | 91 | 1006.2 |
| 20260506061036 | 51 | 0.0 | 0.0 | 0.00 | 0.08 | 0.00 | 92 | 1006.2 | |
| 20260506051113 | 49 | 0.0 | 2.0 | 0.00 | 0.08 | 0.00 | 99 | 1006.6 | |
| 20260506050109 | 48 | 0.0 | 2.0 | 0.00 | 0.08 | 0.00 | 99 | 1006.6 | |
| 20260506045105 | 47 | 0.0 | 0.0 | 0.00 | 0.08 | 0.00 | 99 | 1006.7 | |
| 20260506044105 | 46 | 0.0 | 0.0 | 0.00 | 0.08 | 0.00 | 99 | 1006.6 | |
| 20260506043102 | 46 | 0.0 | 0.0 | 0.00 | 0.08 | 0.00 | 99 | 1006.8 | |
| 20260506042055 | 46 | 0.0 | 0.0 | 0.00 | 0.08 | 0.00 | 99 | 1006.9 | |
| 20260506041052 | 46 | 0.0 | 0.0 | 0.00 | 0.08 | 0.00 | 99 | 1007.1 | |
| 20260506040048 | 46 | 0.0 | 0.0 | 0.00 | 0.08 | 0.00 | 99 | 1007.0 | |
| 20260506035045 | 45 | 0.0 | 0.0 | 0.00 | 0.08 | 0.00 | 99 | 1007.0 | |
| 20260506034042 | 45 | 0.0 | 0.0 | 0.00 | 0.08 | 0.00 | 99 | 1007.2 | |
| 20260506033041 | 46 | 0.0 | 0.0 | 0.00 | 0.08 | 0.00 | 99 | 1007.3 | |
| 20260506032035 | 46 | 0.0 | 0.0 | 0.00 | 0.08 | 0.00 | 99 | 1007.3 | |
| 20260506031031 | 46 | 0.0 | 0.0 | 0.00 | 0.08 | 0.00 | 98 | 1007.4 | |
| 20260506030030 | 46 | 0.0 | 0.0 | 0.00 | 0.08 | 0.00 | 98 | 1007.6 | |
| 20260506025027 | 46 | 0.0 | 0.0 | 0.00 | 0.08 | 0.00 | 98 | 1007.6 | |
| 20260506024024 | 47 | 0.0 | 0.0 | 0.00 | 0.08 | 0.00 | 97 | 1007.5 | |
| 20260506023017 | 47 | 0.0 | 0.0 | 0.00 | 0.08 | 0.00 | 97 | 1007.6 | |
| 20260506022114 | 47 | 0.0 | 0.0 | 0.00 | 0.08 | 0.00 | 97 | 1007.6 | |
| 20260506021110 | 47 | 0.0 | 0.0 | 0.00 | 0.08 | 0.00 | 96 | 1007.6 | |
| 20260506020107 | 47 | 0.0 | 0.0 | 0.00 | 0.08 | 0.00 | 96 | 1007.8 | |
| 20260506015107 | 48 | 0.0 | 0.0 | 0.00 | 0.08 | 0.00 | 96 | 1007.9 | |
| 20260506014059 | 48 | 0.0 | 2.0 | 0.00 | 0.08 | 0.00 | 95 | 1007.9 | |
| 20260506013059 | 48 | 0.0 | 2.0 | 0.00 | 0.08 | 0.00 | 95 | 1007.9 | |
| 20260506012052 | 48 | 0.0 | 2.0 | 0.00 | 0.08 | 0.00 | 95 | 1008.0 | |
| 20260506011049 | 48 | 198 | 0.0 | 2.0 | 0.00 | 0.08 | 0.00 | 96 | 1008.0 |
| 20260506010045 | 48 | 141 | 0.0 | 4.0 | 0.00 | 0.08 | 0.00 | 96 | 1008.2 |
| 20260506005042 | 48 | 0.0 | 2.0 | 0.00 | 0.08 | 0.00 | 97 | 1008.1 | |
| 20260506004038 | 49 | 0.0 | 2.0 | 0.00 | 0.08 | 0.00 | 97 | 1008.0 | |
| 20260506003035 | 49 | 0.0 | 0.0 | 0.00 | 0.08 | 0.00 | 96 | 1008.1 | |
| 20260506002032 | 49 | 158 | 0.0 | 2.0 | 0.00 | 0.08 | 0.00 | 96 | 1008.1 |
| 20260506001028 | 49 | 225 | 0.0 | 2.0 | 0.00 | 0.08 | 0.00 | 96 | 1008.2 |
| 20260506000025 | 49 | 152 | 1.0 | 2.0 | 0.00 | 0.08 | 0.00 | 96 | 1008.3 |
| 20260505235025 | 49 | 160 | 0.0 | 2.0 | 0.00 | 0.08 | 0.00 | 97 | 1008.6 |
| 20260505234018 | 49 | 158 | 0.0 | 2.0 | 0.00 | 0.08 | 0.00 | 98 | 1008.7 |